West Park, New York
Current Conditions -  °F | °C
As of 9:53 PM on Friday 31 Oct 2014 (Local Time) from KPOU Reporting Station
Overcast Overcast  
Wind Chill: 50°   Ceiling: 2800
Heat Index: 50°   Visibility: 10mi
Dew Point: 39°   Wind: 8mph
Humidity: 66%   Direction: 70°ENE
Pressure: 29.92"   Gusts: NA
Location:  41.79°N, 73.96°W
Report Text: KPOU 010153Z AUTO 07007KT 10SM OVC028 10/04 A2992 RMK AO2 SLP130 T01000039 TSNO
Loading
Personal Weather Stations






























Interactive Weather Map
Tropical Storm Tracking
New forecast layout! Learn more

10-Day Weather Forecast

Advertisements
Track Severe Weather on mobile